sensor_id;sensor_type;location;lat;lon;timestamp;P1;durP1;ratioP1;P2;durP2;ratioP2
49416;SDS011;35290;39.550;8.786;2023-07-02T00:00:53;18.87;;;4.33;;
49416;SDS011;35290;39.550;8.786;2023-07-02T00:03:20;15.15;;;3.90;;
49416;SDS011;35290;39.550;8.786;2023-07-02T00:05:47;15.95;;;4.32;;
49416;SDS011;35290;39.550;8.786;2023-07-02T00:08:12;14.38;;;4.20;;
49416;SDS011;35290;39.550;8.786;2023-07-02T00:10:38;15.25;;;4.03;;
49416;SDS011;35290;39.550;8.786;2023-07-02T00:13:03;12.98;;;4.13;;
49416;SDS011;35290;39.550;8.786;2023-07-02T00:15:28;16.23;;;4.32;;
49416;SDS011;35290;39.550;8.786;2023-07-02T00:17:54;14.20;;;3.83;;
49416;SDS011;35290;39.550;8.786;2023-07-02T00:20:22;18.73;;;4.63;;
49416;SDS011;35290;39.550;8.786;2023-07-02T00:22:48;18.73;;;4.65;;
49416;SDS011;35290;39.550;8.786;2023-07-02T00:25:14;15.73;;;4.28;;
49416;SDS011;35290;39.550;8.786;2023-07-02T00:27:39;15.50;;;4.22;;
49416;SDS011;35290;39.550;8.786;2023-07-02T00:30:05;14.77;;;4.13;;
49416;SDS011;35290;39.550;8.786;2023-07-02T00:32:31;14.32;;;4.57;;
49416;SDS011;35290;39.550;8.786;2023-07-02T00:34:56;12.75;;;3.63;;
49416;SDS011;35290;39.550;8.786;2023-07-02T00:37:22;10.05;;;3.72;;
49416;SDS011;35290;39.550;8.786;2023-07-02T00:39:47;12.98;;;3.60;;
49416;SDS011;35290;39.550;8.786;2023-07-02T00:42:13;14.98;;;4.47;;
49416;SDS011;35290;39.550;8.786;2023-07-02T00:44:38;15.68;;;4.50;;
49416;SDS011;35290;39.550;8.786;2023-07-02T00:47:09;12.05;;;3.42;;
49416;SDS011;35290;39.550;8.786;2023-07-02T00:49:34;13.73;;;4.32;;
49416;SDS011;35290;39.550;8.786;2023-07-02T00:51:59;14.65;;;3.83;;
49416;SDS011;35290;39.550;8.786;2023-07-02T00:54:27;14.07;;;3.80;;
49416;SDS011;35290;39.550;8.786;2023-07-02T00:56:53;13.00;;;4.25;;
49416;SDS011;35290;39.550;8.786;2023-07-02T00:59:18;13.43;;;4.00;;
49416;SDS011;35290;39.550;8.786;2023-07-02T01:01:43;11.35;;;3.70;;
49416;SDS011;35290;39.550;8.786;2023-07-02T01:04:16;13.43;;;3.13;;
49416;SDS011;35290;39.550;8.786;2023-07-02T01:06:41;16.85;;;3.75;;
49416;SDS011;35290;39.550;8.786;2023-07-02T01:09:07;12.05;;;3.60;;
49416;SDS011;35290;39.550;8.786;2023-07-02T01:11:40;14.85;;;3.92;;
49416;SDS011;35290;39.550;8.786;2023-07-02T01:14:11;12.60;;;3.83;;
49416;SDS011;35290;39.550;8.786;2023-07-02T01:16:37;13.20;;;3.93;;
49416;SDS011;35290;39.550;8.786;2023-07-02T01:19:10;13.98;;;4.15;;
49416;SDS011;35290;39.550;8.786;2023-07-02T01:21:36;12.07;;;4.13;;
49416;SDS011;35290;39.550;8.786;2023-07-02T01:24:02;9.73;;;3.20;;
49416;SDS011;35290;39.550;8.786;2023-07-02T01:26:29;18.92;;;4.28;;
49416;SDS011;35290;39.550;8.786;2023-07-02T01:28:54;10.95;;;3.72;;
49416;SDS011;35290;39.550;8.786;2023-07-02T01:31:20;16.88;;;4.10;;
49416;SDS011;35290;39.550;8.786;2023-07-02T01:33:50;12.05;;;3.40;;
49416;SDS011;35290;39.550;8.786;2023-07-02T01:36:16;12.90;;;4.13;;
49416;SDS011;35290;39.550;8.786;2023-07-02T01:38:41;10.98;;;3.03;;
49416;SDS011;35290;39.550;8.786;2023-07-02T01:41:07;21.83;;;4.20;;
49416;SDS011;35290;39.550;8.786;2023-07-02T01:43:32;14.65;;;4.15;;
49416;SDS011;35290;39.550;8.786;2023-07-02T01:45:57;15.15;;;3.42;;
49416;SDS011;35290;39.550;8.786;2023-07-02T01:48:22;11.43;;;3.60;;
49416;SDS011;35290;39.550;8.786;2023-07-02T01:50:48;12.13;;;3.63;;
49416;SDS011;35290;39.550;8.786;2023-07-02T01:53:13;15.05;;;3.38;;
49416;SDS011;35290;39.550;8.786;2023-07-02T01:55:38;13.93;;;3.37;;
49416;SDS011;35290;39.550;8.786;2023-07-02T01:58:04;11.70;;;3.47;;
49416;SDS011;35290;39.550;8.786;2023-07-02T02:00:29;19.60;;;3.70;;
49416;SDS011;35290;39.550;8.786;2023-07-02T02:02:54;8.95;;;3.22;;
49416;SDS011;35290;39.550;8.786;2023-07-02T02:05:20;11.85;;;3.53;;
49416;SDS011;35290;39.550;8.786;2023-07-02T02:07:45;16.98;;;4.18;;
49416;SDS011;35290;39.550;8.786;2023-07-02T02:10:10;10.65;;;3.05;;
49416;SDS011;35290;39.550;8.786;2023-07-02T02:12:36;13.40;;;3.10;;
49416;SDS011;35290;39.550;8.786;2023-07-02T02:15:01;11.68;;;2.83;;
49416;SDS011;35290;39.550;8.786;2023-07-02T02:17:27;9.20;;;2.97;;
49416;SDS011;35290;39.550;8.786;2023-07-02T02:19:52;14.77;;;3.95;;
49416;SDS011;35290;39.550;8.786;2023-07-02T02:22:17;10.10;;;3.13;;
49416;SDS011;35290;39.550;8.786;2023-07-02T02:24:43;12.70;;;3.03;;
49416;SDS011;35290;39.550;8.786;2023-07-02T02:27:08;8.35;;;2.92;;
49416;SDS011;35290;39.550;8.786;2023-07-02T02:29:33;16.40;;;3.80;;
49416;SDS011;35290;39.550;8.786;2023-07-02T02:31:59;15.15;;;3.30;;
49416;SDS011;35290;39.550;8.786;2023-07-02T02:34:24;13.30;;;2.80;;
49416;SDS011;35290;39.550;8.786;2023-07-02T02:36:50;14.43;;;3.30;;
49416;SDS011;35290;39.550;8.786;2023-07-02T02:39:15;8.82;;;3.05;;
49416;SDS011;35290;39.550;8.786;2023-07-02T02:41:40;10.93;;;3.40;;
49416;SDS011;35290;39.550;8.786;2023-07-02T02:44:06;12.93;;;3.30;;
49416;SDS011;35290;39.550;8.786;2023-07-02T02:46:31;11.90;;;3.08;;
49416;SDS011;35290;39.550;8.786;2023-07-02T02:48:56;7.78;;;2.53;;
49416;SDS011;35290;39.550;8.786;2023-07-02T02:51:22;11.80;;;3.28;;
49416;SDS011;35290;39.550;8.786;2023-07-02T02:53:48;7.80;;;2.80;;
49416;SDS011;35290;39.550;8.786;2023-07-02T02:56:13;14.35;;;3.45;;
49416;SDS011;35290;39.550;8.786;2023-07-02T02:58:39;11.25;;;3.03;;
49416;SDS011;35290;39.550;8.786;2023-07-02T03:01:04;17.65;;;3.08;;
49416;SDS011;35290;39.550;8.786;2023-07-02T03:03:35;13.45;;;2.75;;
49416;SDS011;35290;39.550;8.786;2023-07-02T03:06:03;9.38;;;2.97;;
49416;SDS011;35290;39.550;8.786;2023-07-02T03:08:28;12.85;;;3.72;;
49416;SDS011;35290;39.550;8.786;2023-07-02T03:10:53;11.02;;;2.75;;
49416;SDS011;35290;39.550;8.786;2023-07-02T03:13:19;13.40;;;3.30;;
49416;SDS011;35290;39.550;8.786;2023-07-02T03:15:44;11.30;;;3.45;;
49416;SDS011;35290;39.550;8.786;2023-07-02T03:18:09;17.77;;;3.83;;
49416;SDS011;35290;39.550;8.786;2023-07-02T03:20:34;15.83;;;3.40;;
49416;SDS011;35290;39.550;8.786;2023-07-02T03:23:00;8.27;;;2.77;;
49416;SDS011;35290;39.550;8.786;2023-07-02T03:25:25;12.60;;;3.07;;
49416;SDS011;35290;39.550;8.786;2023-07-02T03:27:50;10.05;;;2.78;;
49416;SDS011;35290;39.550;8.786;2023-07-02T03:30:15;12.63;;;2.97;;
49416;SDS011;35290;39.550;8.786;2023-07-02T03:32:41;14.18;;;3.00;;
49416;SDS011;35290;39.550;8.786;2023-07-02T03:35:06;11.52;;;2.80;;
49416;SDS011;35290;39.550;8.786;2023-07-02T03:37:32;14.80;;;3.47;;
49416;SDS011;35290;39.550;8.786;2023-07-02T03:39:57;14.35;;;3.00;;
49416;SDS011;35290;39.550;8.786;2023-07-02T03:42:23;11.52;;;2.80;;
49416;SDS011;35290;39.550;8.786;2023-07-02T03:44:49;10.68;;;2.92;;
49416;SDS011;35290;39.550;8.786;2023-07-02T03:47:14;15.23;;;3.50;;
49416;SDS011;35290;39.550;8.786;2023-07-02T03:49:41;9.75;;;2.60;;
49416;SDS011;35290;39.550;8.786;2023-07-02T03:52:06;12.63;;;2.88;;
49416;SDS011;35290;39.550;8.786;2023-07-02T03:54:34;16.77;;;3.40;;
49416;SDS011;35290;39.550;8.786;2023-07-02T03:57:00;17.60;;;2.90;;
49416;SDS011;35290;39.550;8.786;2023-07-02T03:59:25;13.25;;;3.10;;
49416;SDS011;35290;39.550;8.786;2023-07-02T04:01:51;13.45;;;2.63;;
49416;SDS011;35290;39.550;8.786;2023-07-02T04:04:16;16.75;;;2.90;;
49416;SDS011;35290;39.550;8.786;2023-07-02T04:06:41;16.55;;;3.92;;
49416;SDS011;35290;39.550;8.786;2023-07-02T04:09:07;16.70;;;3.45;;
49416;SDS011;35290;39.550;8.786;2023-07-02T04:11:32;14.32;;;3.00;;
49416;SDS011;35290;39.550;8.786;2023-07-02T04:13:57;18.55;;;3.28;;
49416;SDS011;35290;39.550;8.786;2023-07-02T04:16:22;18.83;;;3.17;;
49416;SDS011;35290;39.550;8.786;2023-07-02T04:18:48;15.52;;;3.10;;
49416;SDS011;35290;39.550;8.786;2023-07-02T04:21:13;15.95;;;3.97;;
49416;SDS011;35290;39.550;8.786;2023-07-02T04:23:38;18.70;;;3.65;;
49416;SDS011;35290;39.550;8.786;2023-07-02T04:26:04;14.35;;;3.58;;
49416;SDS011;35290;39.550;8.786;2023-07-02T04:28:29;20.40;;;4.57;;
49416;SDS011;35290;39.550;8.786;2023-07-02T04:30:54;19.10;;;4.37;;
49416;SDS011;35290;39.550;8.786;2023-07-02T04:33:20;18.10;;;3.53;;
49416;SDS011;35290;39.550;8.786;2023-07-02T04:35:45;16.98;;;3.85;;
49416;SDS011;35290;39.550;8.786;2023-07-02T04:38:10;17.67;;;3.28;;
49416;SDS011;35290;39.550;8.786;2023-07-02T04:40:37;18.27;;;3.53;;
49416;SDS011;35290;39.550;8.786;2023-07-02T04:43:02;17.98;;;3.88;;
49416;SDS011;35290;39.550;8.786;2023-07-02T04:45:28;16.50;;;3.53;;
49416;SDS011;35290;39.550;8.786;2023-07-02T04:47:57;19.65;;;3.53;;
49416;SDS011;35290;39.550;8.786;2023-07-02T04:50:22;17.33;;;3.45;;
49416;SDS011;35290;39.550;8.786;2023-07-02T04:52:47;17.02;;;3.20;;
49416;SDS011;35290;39.550;8.786;2023-07-02T04:55:13;24.00;;;3.80;;
49416;SDS011;35290;39.550;8.786;2023-07-02T04:57:38;24.75;;;3.78;;
49416;SDS011;35290;39.550;8.786;2023-07-02T05:00:03;21.08;;;3.67;;
49416;SDS011;35290;39.550;8.786;2023-07-02T05:02:31;20.10;;;3.30;;
49416;SDS011;35290;39.550;8.786;2023-07-02T05:04:56;21.77;;;3.45;;
49416;SDS011;35290;39.550;8.786;2023-07-02T05:07:21;22.55;;;3.53;;
49416;SDS011;35290;39.550;8.786;2023-07-02T05:09:47;18.70;;;3.13;;
49416;SDS011;35290;39.550;8.786;2023-07-02T05:12:13;20.63;;;3.75;;
49416;SDS011;35290;39.550;8.786;2023-07-02T05:14:38;17.50;;;3.50;;
49416;SDS011;35290;39.550;8.786;2023-07-02T05:17:04;18.98;;;3.55;;
49416;SDS011;35290;39.550;8.786;2023-07-02T05:19:29;20.67;;;4.32;;
49416;SDS011;35290;39.550;8.786;2023-07-02T05:21:54;21.38;;;4.20;;
49416;SDS011;35290;39.550;8.786;2023-07-02T05:24:20;23.40;;;4.03;;
49416;SDS011;35290;39.550;8.786;2023-07-02T05:26:45;18.00;;;3.75;;
49416;SDS011;35290;39.550;8.786;2023-07-02T05:29:11;23.15;;;4.22;;
49416;SDS011;35290;39.550;8.786;2023-07-02T05:31:36;23.02;;;4.05;;
49416;SDS011;35290;39.550;8.786;2023-07-02T05:34:02;23.17;;;3.92;;
49416;SDS011;35290;39.550;8.786;2023-07-02T05:36:27;18.63;;;3.80;;
49416;SDS011;35290;39.550;8.786;2023-07-02T05:38:52;24.52;;;3.90;;
49416;SDS011;35290;39.550;8.786;2023-07-02T05:41:18;24.20;;;4.38;;
49416;SDS011;35290;39.550;8.786;2023-07-02T05:43:43;20.90;;;3.63;;
49416;SDS011;35290;39.550;8.786;2023-07-02T05:46:09;25.75;;;4.25;;
49416;SDS011;35290;39.550;8.786;2023-07-02T05:48:34;21.67;;;4.00;;
49416;SDS011;35290;39.550;8.786;2023-07-02T05:51:00;19.50;;;3.50;;
49416;SDS011;35290;39.550;8.786;2023-07-02T05:53:25;26.38;;;4.47;;
49416;SDS011;35290;39.550;8.786;2023-07-02T05:55:50;25.87;;;4.17;;
49416;SDS011;35290;39.550;8.786;2023-07-02T05:58:15;26.73;;;5.07;;
49416;SDS011;35290;39.550;8.786;2023-07-02T06:00:41;23.17;;;4.47;;
49416;SDS011;35290;39.550;8.786;2023-07-02T06:03:06;30.05;;;4.95;;
49416;SDS011;35290;39.550;8.786;2023-07-02T06:05:32;16.20;;;3.38;;
49416;SDS011;35290;39.550;8.786;2023-07-02T06:07:57;20.90;;;4.10;;
49416;SDS011;35290;39.550;8.786;2023-07-02T06:10:22;20.45;;;4.15;;
49416;SDS011;35290;39.550;8.786;2023-07-02T06:12:48;28.83;;;4.45;;
49416;SDS011;35290;39.550;8.786;2023-07-02T06:15:13;18.88;;;4.22;;
49416;SDS011;35290;39.550;8.786;2023-07-02T06:17:38;17.20;;;4.18;;
49416;SDS011;35290;39.550;8.786;2023-07-02T06:20:04;20.05;;;4.45;;
49416;SDS011;35290;39.550;8.786;2023-07-02T06:22:32;20.80;;;4.25;;
49416;SDS011;35290;39.550;8.786;2023-07-02T06:24:58;19.17;;;4.22;;
49416;SDS011;35290;39.550;8.786;2023-07-02T06:27:23;20.02;;;4.22;;
49416;SDS011;35290;39.550;8.786;2023-07-02T06:29:48;26.48;;;4.25;;
49416;SDS011;35290;39.550;8.786;2023-07-02T06:32:15;23.77;;;4.43;;
49416;SDS011;35290;39.550;8.786;2023-07-02T06:34:40;25.05;;;4.15;;
49416;SDS011;35290;39.550;8.786;2023-07-02T06:37:06;23.43;;;4.20;;
49416;SDS011;35290;39.550;8.786;2023-07-02T06:39:31;19.90;;;4.38;;
49416;SDS011;35290;39.550;8.786;2023-07-02T06:41:56;20.23;;;4.40;;
49416;SDS011;35290;39.550;8.786;2023-07-02T06:44:22;17.75;;;4.20;;
49416;SDS011;35290;39.550;8.786;2023-07-02T06:46:47;19.23;;;3.90;;
49416;SDS011;35290;39.550;8.786;2023-07-02T06:49:12;20.15;;;4.47;;
49416;SDS011;35290;39.550;8.786;2023-07-02T06:51:38;22.67;;;4.55;;
49416;SDS011;35290;39.550;8.786;2023-07-02T06:54:03;17.00;;;4.13;;
49416;SDS011;35290;39.550;8.786;2023-07-02T06:56:28;20.08;;;3.90;;
49416;SDS011;35290;39.550;8.786;2023-07-02T06:58:54;22.42;;;4.47;;
49416;SDS011;35290;39.550;8.786;2023-07-02T07:01:19;19.00;;;4.15;;
49416;SDS011;35290;39.550;8.786;2023-07-02T07:03:45;22.80;;;3.85;;
49416;SDS011;35290;39.550;8.786;2023-07-02T07:06:10;23.67;;;5.05;;
49416;SDS011;35290;39.550;8.786;2023-07-02T07:08:39;22.52;;;4.05;;
49416;SDS011;35290;39.550;8.786;2023-07-02T07:11:04;17.92;;;4.15;;
49416;SDS011;35290;39.550;8.786;2023-07-02T07:13:29;19.15;;;4.03;;
49416;SDS011;35290;39.550;8.786;2023-07-02T07:15:55;18.70;;;4.00;;
49416;SDS011;35290;39.550;8.786;2023-07-02T07:18:21;19.92;;;3.97;;
49416;SDS011;35290;39.550;8.786;2023-07-02T07:20:46;20.45;;;4.20;;
49416;SDS011;35290;39.550;8.786;2023-07-02T07:23:11;20.30;;;4.32;;
49416;SDS011;35290;39.550;8.786;2023-07-02T07:25:37;19.83;;;3.92;;
49416;SDS011;35290;39.550;8.786;2023-07-02T07:28:02;16.57;;;4.20;;
49416;SDS011;35290;39.550;8.786;2023-07-02T07:30:27;20.92;;;3.90;;
49416;SDS011;35290;39.550;8.786;2023-07-02T07:32:53;15.20;;;3.78;;
49416;SDS011;35290;39.550;8.786;2023-07-02T07:35:19;18.08;;;4.18;;
49416;SDS011;35290;39.550;8.786;2023-07-02T07:37:45;16.88;;;4.22;;
49416;SDS011;35290;39.550;8.786;2023-07-02T07:40:10;19.33;;;4.82;;
49416;SDS011;35290;39.550;8.786;2023-07-02T07:42:36;24.95;;;4.53;;
49416;SDS011;35290;39.550;8.786;2023-07-02T07:45:03;17.55;;;4.45;;
49416;SDS011;35290;39.550;8.786;2023-07-02T07:47:29;21.63;;;4.50;;
49416;SDS011;35290;39.550;8.786;2023-07-02T07:49:54;20.00;;;4.55;;
49416;SDS011;35290;39.550;8.786;2023-07-02T07:52:20;21.35;;;4.20;;
49416;SDS011;35290;39.550;8.786;2023-07-02T07:54:45;13.93;;;3.78;;
49416;SDS011;35290;39.550;8.786;2023-07-02T07:57:10;20.40;;;5.05;;
49416;SDS011;35290;39.550;8.786;2023-07-02T07:59:36;13.90;;;4.18;;
49416;SDS011;35290;39.550;8.786;2023-07-02T08:02:01;17.63;;;4.07;;
49416;SDS011;35290;39.550;8.786;2023-07-02T08:04:26;15.20;;;4.13;;
49416;SDS011;35290;39.550;8.786;2023-07-02T08:06:52;16.80;;;4.05;;
49416;SDS011;35290;39.550;8.786;2023-07-02T08:09:17;16.65;;;4.30;;
49416;SDS011;35290;39.550;8.786;2023-07-02T08:11:42;16.95;;;4.30;;
49416;SDS011;35290;39.550;8.786;2023-07-02T08:14:08;15.35;;;4.45;;
49416;SDS011;35290;39.550;8.786;2023-07-02T08:16:33;13.27;;;3.70;;
49416;SDS011;35290;39.550;8.786;2023-07-02T08:18:58;18.73;;;4.13;;
49416;SDS011;35290;39.550;8.786;2023-07-02T08:21:24;11.98;;;3.85;;
49416;SDS011;35290;39.550;8.786;2023-07-02T08:23:49;15.30;;;4.47;;
49416;SDS011;35290;39.550;8.786;2023-07-02T08:26:14;17.70;;;4.57;;
49416;SDS011;35290;39.550;8.786;2023-07-02T08:28:40;16.73;;;4.18;;
49416;SDS011;35290;39.550;8.786;2023-07-02T08:31:05;12.68;;;3.60;;
49416;SDS011;35290;39.550;8.786;2023-07-02T08:33:31;19.45;;;4.80;;
49416;SDS011;35290;39.550;8.786;2023-07-02T08:35:56;12.60;;;3.63;;
49416;SDS011;35290;39.550;8.786;2023-07-02T08:38:22;17.08;;;4.22;;
49416;SDS011;35290;39.550;8.786;2023-07-02T08:40:48;19.85;;;4.57;;
49416;SDS011;35290;39.550;8.786;2023-07-02T08:43:14;14.27;;;3.95;;
49416;SDS011;35290;39.550;8.786;2023-07-02T08:45:40;15.82;;;4.35;;
49416;SDS011;35290;39.550;8.786;2023-07-02T08:48:06;17.52;;;4.72;;
49416;SDS011;35290;39.550;8.786;2023-07-02T08:50:31;17.92;;;5.35;;
49416;SDS011;35290;39.550;8.786;2023-07-02T08:52:56;16.10;;;4.50;;
49416;SDS011;35290;39.550;8.786;2023-07-02T08:55:22;16.85;;;4.88;;
49416;SDS011;35290;39.550;8.786;2023-07-02T08:57:49;13.40;;;4.32;;
49416;SDS011;35290;39.550;8.786;2023-07-02T09:00:14;15.18;;;4.40;;
49416;SDS011;35290;39.550;8.786;2023-07-02T09:02:40;12.85;;;4.22;;
49416;SDS011;35290;39.550;8.786;2023-07-02T09:05:05;14.23;;;4.97;;
49416;SDS011;35290;39.550;8.786;2023-07-02T09:07:31;14.80;;;4.60;;
49416;SDS011;35290;39.550;8.786;2023-07-02T09:09:56;16.30;;;4.85;;
49416;SDS011;35290;39.550;8.786;2023-07-02T09:12:22;19.25;;;4.63;;
49416;SDS011;35290;39.550;8.786;2023-07-02T09:14:53;17.70;;;4.75;;
49416;SDS011;35290;39.550;8.786;2023-07-02T09:17:18;17.55;;;5.00;;
49416;SDS011;35290;39.550;8.786;2023-07-02T09:19:50;16.48;;;4.85;;
49416;SDS011;35290;39.550;8.786;2023-07-02T09:22:19;22.80;;;6.05;;
49416;SDS011;35290;39.550;8.786;2023-07-02T09:24:51;17.17;;;5.32;;
49416;SDS011;35290;39.550;8.786;2023-07-02T09:27:18;18.80;;;4.90;;
49416;SDS011;35290;39.550;8.786;2023-07-02T09:29:43;16.42;;;5.20;;
49416;SDS011;35290;39.550;8.786;2023-07-02T09:32:09;17.98;;;5.55;;
49416;SDS011;35290;39.550;8.786;2023-07-02T09:34:35;16.70;;;5.25;;
49416;SDS011;35290;39.550;8.786;2023-07-02T09:37:01;17.98;;;5.10;;
49416;SDS011;35290;39.550;8.786;2023-07-02T09:39:33;18.23;;;5.25;;
49416;SDS011;35290;39.550;8.786;2023-07-02T09:41:59;19.23;;;5.72;;
49416;SDS011;35290;39.550;8.786;2023-07-02T09:44:32;17.05;;;5.28;;
49416;SDS011;35290;39.550;8.786;2023-07-02T09:47:01;12.98;;;4.88;;
49416;SDS011;35290;39.550;8.786;2023-07-02T09:49:27;16.83;;;4.78;;
49416;SDS011;35290;39.550;8.786;2023-07-02T09:51:56;14.27;;;5.00;;
49416;SDS011;35290;39.550;8.786;2023-07-02T09:54:23;15.85;;;5.15;;
49416;SDS011;35290;39.550;8.786;2023-07-02T09:56:49;13.20;;;5.32;;
49416;SDS011;35290;39.550;8.786;2023-07-02T09:59:14;15.43;;;5.43;;
49416;SDS011;35290;39.550;8.786;2023-07-02T10:01:39;13.38;;;5.05;;
49416;SDS011;35290;39.550;8.786;2023-07-02T10:04:14;10.52;;;4.50;;
49416;SDS011;35290;39.550;8.786;2023-07-02T10:06:56;14.45;;;5.43;;
49416;SDS011;35290;39.550;8.786;2023-07-02T10:09:43;11.98;;;4.18;;
49416;SDS011;35290;39.550;8.786;2023-07-02T10:12:17;15.52;;;5.03;;
49416;SDS011;35290;39.550;8.786;2023-07-02T10:14:43;15.82;;;5.32;;
49416;SDS011;35290;39.550;8.786;2023-07-02T10:17:08;14.93;;;4.95;;
49416;SDS011;35290;39.550;8.786;2023-07-02T10:19:34;13.98;;;5.20;;
49416;SDS011;35290;39.550;8.786;2023-07-02T10:22:03;13.13;;;4.97;;
49416;SDS011;35290;39.550;8.786;2023-07-02T10:24:33;11.18;;;4.78;;
49416;SDS011;35290;39.550;8.786;2023-07-02T10:26:59;15.05;;;5.30;;
49416;SDS011;35290;39.550;8.786;2023-07-02T10:29:25;12.60;;;5.03;;
49416;SDS011;35290;39.550;8.786;2023-07-02T10:31:51;9.27;;;3.75;;
49416;SDS011;35290;39.550;8.786;2023-07-02T10:34:27;14.13;;;5.10;;
49416;SDS011;35290;39.550;8.786;2023-07-02T10:36:55;11.25;;;4.35;;
49416;SDS011;35290;39.550;8.786;2023-07-02T10:39:21;13.90;;;5.80;;
49416;SDS011;35290;39.550;8.786;2023-07-02T10:41:47;12.43;;;5.38;;
49416;SDS011;35290;39.550;8.786;2023-07-02T10:44:12;12.00;;;5.20;;
49416;SDS011;35290;39.550;8.786;2023-07-02T10:46:45;13.55;;;4.78;;
49416;SDS011;35290;39.550;8.786;2023-07-02T10:49:10;12.45;;;5.50;;
49416;SDS011;35290;39.550;8.786;2023-07-02T10:51:37;13.13;;;5.55;;
49416;SDS011;35290;39.550;8.786;2023-07-02T10:54:02;16.52;;;5.38;;
49416;SDS011;35290;39.550;8.786;2023-07-02T10:56:29;13.75;;;4.72;;
49416;SDS011;35290;39.550;8.786;2023-07-02T10:58:55;13.15;;;5.32;;
49416;SDS011;35290;39.550;8.786;2023-07-02T11:01:27;12.60;;;5.30;;
49416;SDS011;35290;39.550;8.786;2023-07-02T11:03:56;15.05;;;5.60;;
49416;SDS011;35290;39.550;8.786;2023-07-02T11:06:23;12.65;;;5.32;;
49416;SDS011;35290;39.550;8.786;2023-07-02T11:08:48;17.58;;;5.35;;
49416;SDS011;35290;39.550;8.786;2023-07-02T11:11:14;16.35;;;5.97;;
49416;SDS011;35290;39.550;8.786;2023-07-02T11:13:46;18.58;;;5.80;;
49416;SDS011;35290;39.550;8.786;2023-07-02T11:18:43;11.05;;;5.07;;
49416;SDS011;35290;39.550;8.786;2023-07-02T11:21:12;14.77;;;5.05;;
49416;SDS011;35290;39.550;8.786;2023-07-02T11:23:37;12.25;;;5.30;;
49416;SDS011;35290;39.550;8.786;2023-07-02T11:26:03;13.82;;;5.35;;
49416;SDS011;35290;39.550;8.786;2023-07-02T11:28:29;18.73;;;5.70;;
49416;SDS011;35290;39.550;8.786;2023-07-02T11:30:55;14.70;;;5.53;;
49416;SDS011;35290;39.550;8.786;2023-07-02T11:33:37;21.90;;;5.97;;
49416;SDS011;35290;39.550;8.786;2023-07-02T11:36:03;11.68;;;5.43;;
49416;SDS011;35290;39.550;8.786;2023-07-02T11:38:33;15.77;;;7.07;;
49416;SDS011;35290;39.550;8.786;2023-07-02T11:40:58;17.80;;;5.88;;
49416;SDS011;35290;39.550;8.786;2023-07-02T11:43:25;12.25;;;5.80;;
49416;SDS011;35290;39.550;8.786;2023-07-02T11:45:50;10.98;;;5.05;;
49416;SDS011;35290;39.550;8.786;2023-07-02T11:48:16;15.30;;;6.13;;
49416;SDS011;35290;39.550;8.786;2023-07-02T11:50:41;15.52;;;5.60;;
49416;SDS011;35290;39.550;8.786;2023-07-02T11:53:07;17.63;;;6.35;;
49416;SDS011;35290;39.550;8.786;2023-07-02T11:55:32;15.60;;;5.50;;
49416;SDS011;35290;39.550;8.786;2023-07-02T11:57:57;16.63;;;5.63;;
49416;SDS011;35290;39.550;8.786;2023-07-02T12:00:23;12.90;;;5.82;;
49416;SDS011;35290;39.550;8.786;2023-07-02T12:02:48;14.75;;;5.22;;
49416;SDS011;35290;39.550;8.786;2023-07-02T12:05:14;13.65;;;6.00;;
49416;SDS011;35290;39.550;8.786;2023-07-02T12:07:39;13.30;;;6.68;;
49416;SDS011;35290;39.550;8.786;2023-07-02T12:10:05;16.15;;;6.53;;
49416;SDS011;35290;39.550;8.786;2023-07-02T12:12:31;11.65;;;5.28;;
49416;SDS011;35290;39.550;8.786;2023-07-02T12:14:56;12.85;;;6.53;;
49416;SDS011;35290;39.550;8.786;2023-07-02T12:17:22;17.13;;;6.63;;
49416;SDS011;35290;39.550;8.786;2023-07-02T12:19:47;15.05;;;6.50;;
49416;SDS011;35290;39.550;8.786;2023-07-02T12:22:13;13.75;;;6.35;;
49416;SDS011;35290;39.550;8.786;2023-07-02T12:24:41;14.77;;;6.88;;
49416;SDS011;35290;39.550;8.786;2023-07-02T12:27:07;18.17;;;6.82;;
49416;SDS011;35290;39.550;8.786;2023-07-02T12:29:32;16.08;;;5.78;;
49416;SDS011;35290;39.550;8.786;2023-07-02T12:31:57;13.82;;;6.95;;
49416;SDS011;35290;39.550;8.786;2023-07-02T12:34:23;16.02;;;7.45;;
49416;SDS011;35290;39.550;8.786;2023-07-02T12:36:48;15.77;;;7.13;;
49416;SDS011;35290;39.550;8.786;2023-07-02T12:39:14;14.80;;;7.00;;
49416;SDS011;35290;39.550;8.786;2023-07-02T12:41:39;20.90;;;7.68;;
49416;SDS011;35290;39.550;8.786;2023-07-02T12:44:05;16.52;;;7.22;;
49416;SDS011;35290;39.550;8.786;2023-07-02T12:46:30;13.85;;;6.68;;
49416;SDS011;35290;39.550;8.786;2023-07-02T12:48:56;17.65;;;6.95;;
49416;SDS011;35290;39.550;8.786;2023-07-02T12:51:21;11.52;;;5.60;;
49416;SDS011;35290;39.550;8.786;2023-07-02T12:53:47;13.68;;;6.70;;
49416;SDS011;35290;39.550;8.786;2023-07-02T12:56:12;17.88;;;8.15;;
49416;SDS011;35290;39.550;8.786;2023-07-02T12:58:38;13.73;;;7.13;;
49416;SDS011;35290;39.550;8.786;2023-07-02T13:01:03;13.90;;;6.35;;
49416;SDS011;35290;39.550;8.786;2023-07-02T13:03:29;18.38;;;7.70;;
49416;SDS011;35290;39.550;8.786;2023-07-02T13:05:55;15.93;;;7.60;;
49416;SDS011;35290;39.550;8.786;2023-07-02T13:08:20;14.23;;;6.60;;
49416;SDS011;35290;39.550;8.786;2023-07-02T13:10:46;17.65;;;7.32;;
49416;SDS011;35290;39.550;8.786;2023-07-02T13:13:11;17.02;;;7.03;;
49416;SDS011;35290;39.550;8.786;2023-07-02T13:15:37;17.33;;;6.00;;
49416;SDS011;35290;39.550;8.786;2023-07-02T13:18:03;14.88;;;6.05;;
49416;SDS011;35290;39.550;8.786;2023-07-02T13:20:37;15.75;;;6.32;;
49416;SDS011;35290;39.550;8.786;2023-07-02T13:23:03;18.30;;;7.15;;
49416;SDS011;35290;39.550;8.786;2023-07-02T13:25:28;15.80;;;6.72;;
49416;SDS011;35290;39.550;8.786;2023-07-02T13:27:54;15.55;;;5.03;;
49416;SDS011;35290;39.550;8.786;2023-07-02T13:30:19;18.42;;;6.18;;
49416;SDS011;35290;39.550;8.786;2023-07-02T13:32:45;12.98;;;5.65;;
49416;SDS011;35290;39.550;8.786;2023-07-02T13:35:11;13.23;;;5.75;;
49416;SDS011;35290;39.550;8.786;2023-07-02T13:37:36;14.05;;;5.07;;
49416;SDS011;35290;39.550;8.786;2023-07-02T13:40:02;18.23;;;5.97;;
49416;SDS011;35290;39.550;8.786;2023-07-02T13:42:29;11.20;;;5.35;;
49416;SDS011;35290;39.550;8.786;2023-07-02T13:44:54;14.88;;;5.95;;
49416;SDS011;35290;39.550;8.786;2023-07-02T13:47:19;14.10;;;5.72;;
49416;SDS011;35290;39.550;8.786;2023-07-02T13:49:45;11.10;;;5.38;;
49416;SDS011;35290;39.550;8.786;2023-07-02T13:52:10;11.75;;;5.40;;
49416;SDS011;35290;39.550;8.786;2023-07-02T13:54:36;9.35;;;5.20;;
49416;SDS011;35290;39.550;8.786;2023-07-02T13:57:01;11.40;;;5.78;;
49416;SDS011;35290;39.550;8.786;2023-07-02T13:59:26;13.05;;;5.80;;
49416;SDS011;35290;39.550;8.786;2023-07-02T14:01:52;13.40;;;5.53;;
49416;SDS011;35290;39.550;8.786;2023-07-02T14:04:18;14.50;;;5.80;;
49416;SDS011;35290;39.550;8.786;2023-07-02T14:06:44;13.02;;;5.22;;
49416;SDS011;35290;39.550;8.786;2023-07-02T14:09:09;12.57;;;5.63;;
49416;SDS011;35290;39.550;8.786;2023-07-02T14:11:35;13.32;;;6.20;;
49416;SDS011;35290;39.550;8.786;2023-07-02T14:14:01;13.85;;;5.55;;
49416;SDS011;35290;39.550;8.786;2023-07-02T14:16:26;11.55;;;5.10;;
49416;SDS011;35290;39.550;8.786;2023-07-02T14:18:52;12.43;;;5.50;;
49416;SDS011;35290;39.550;8.786;2023-07-02T14:21:18;11.18;;;4.75;;
49416;SDS011;35290;39.550;8.786;2023-07-02T14:23:43;11.32;;;5.28;;
49416;SDS011;35290;39.550;8.786;2023-07-02T14:26:09;10.68;;;5.10;;
49416;SDS011;35290;39.550;8.786;2023-07-02T14:28:34;11.75;;;5.28;;
49416;SDS011;35290;39.550;8.786;2023-07-02T14:31:00;10.45;;;4.78;;